Messwerte Möhlin

Temperatur

Temperatur
°C
1461841200 13.00 13.00 9.8
1461844800 14.00 14.00 9.8
1461848400 15.00 15.00 9.3
1461852000 16.00 16.00 10.5
1461855600 17.00 17.00 10.0
1461859200 18.00 18.00 10.8
1461862800 19.00 19.00 10.5
1461866400 20.00 20.00 8.5
1461870000 21.00 21.00 6.5
1461873600 22.00 22.00 5.5
1461877200 23.00 23.00 4.7
1461880800 0.00 0.00 4.4
1461884400 1.00 1.00 3.8
1461888000 2.00 2.00 2.7
1461891600 3.00 3.00 1.6
1461895200 4.00 4.00 2.6
1461898800 5.00 5.00 2.0
1461902400 6.00 6.00 2.4
1461906000 7.00 7.00 2.5
1461909600 8.00 8.00 4.1
1461913200 9.00 9.00 6.0
1461916800 10.00 10.00 8.5
1461920400 11.00 11.00 10.8
1461924000 12.00 12.00 11.1

Sonnenschein

Sonnenscheindauer
min
1461841200 13.00 12.00 - 13.00 39
1461844800 14.00 13.00 - 14.00
1461848400 15.00 14.00 - 15.00 18
1461852000 16.00 15.00 - 16.00
1461855600 17.00 16.00 - 17.00
1461859200 18.00 17.00 - 18.00
1461862800 19.00 18.00 - 19.00 42
1461866400 20.00 19.00 - 20.00 52
1461870000 21.00 20.00 - 21.00
1461873600 22.00 21.00 - 22.00
1461877200 23.00 22.00 - 23.00 0
1461880800 0.00 23.00 - 0.00 0
1461884400 1.00 0.00 - 1.00 0
1461888000 2.00 1.00 - 2.00 0
1461891600 3.00 2.00 - 3.00
1461895200 4.00 3.00 - 4.00
1461898800 5.00 4.00 - 5.00 0
1461902400 6.00 5.00 - 6.00
1461906000 7.00 6.00 - 7.00 0
1461909600 8.00 7.00 - 8.00
1461913200 9.00 8.00 - 9.00 60
1461916800 10.00 9.00 - 10.00
1461920400 11.00 10.00 - 11.00 60
1461924000 12.00 11.00 - 12.00 60

Aktuellste Messwerte

Wettercharakter
Wetter: sonnig
Temperatur
11.6 °C
Feuchtigkeit
50 %
Wind
3 km/hWindrichtung: West
Böen
13 km/h
Niederschlag
0.0 mm
Sonne
50 min
Luftdruck
1018.9 hPa
Globalstrahlung
783 W/m²
Messzeit: 29. April 2016, 12.00Datenquelle: MeteoSchweiz

Weitere Messstationen in der Nähe

Messstation Temperatur Entfernung
Schwörstadt 12.3 °C 3 km
Eiken 12.3 °C 11 km
St. Chrischona 6.5 °C 13 km
Zunzgen 12.9 °C 13 km
Liestal 12.0 °C 13 km
Zunzgen 12.3 °C 14 km
Riehen 13.1 °C 15 km

Niederschlag

Niederschlagsmenge
mm
1461841200 13.00 12.00 - 13.00 0.0
1461844800 14.00 13.00 - 14.00 0.0
1461848400 15.00 14.00 - 15.00 0.0
1461852000 16.00 15.00 - 16.00 0.0
1461855600 17.00 16.00 - 17.00 0.0
1461859200 18.00 17.00 - 18.00 0.0
1461862800 19.00 18.00 - 19.00 0.0
1461866400 20.00 19.00 - 20.00 0.0
1461870000 21.00 20.00 - 21.00 0.0
1461873600 22.00 21.00 - 22.00 0.0
1461877200 23.00 22.00 - 23.00 0.0
1461880800 0.00 23.00 - 0.00 0.0
1461884400 1.00 0.00 - 1.00 0.0
1461888000 2.00 1.00 - 2.00 0.0
1461891600 3.00 2.00 - 3.00 0.0
1461895200 4.00 3.00 - 4.00 0.0
1461898800 5.00 4.00 - 5.00 0.0
1461902400 6.00 5.00 - 6.00 0.0
1461906000 7.00 6.00 - 7.00 0.0
1461909600 8.00 7.00 - 8.00 0.0
1461913200 9.00 8.00 - 9.00 0.0
1461916800 10.00 9.00 - 10.00 0.0
1461920400 11.00 10.00 - 11.00 0.0
1461924000 12.00 11.00 - 12.00 0.0

Wind

Windrichtung Böen Mittelwind
° km/h km/h
1461841200 13.00 12.00 - 13.00 220° 26 9
1461844800 14.00 13.00 - 14.00 320° 31 13
1461848400 15.00 14.00 - 15.00 240° 23 10
1461852000 16.00 15.00 - 16.00 230° 18 8
1461855600 17.00 16.00 - 17.00 300° 22 10
1461859200 18.00 17.00 - 18.00 270° 21 9
1461862800 19.00 18.00 - 19.00 310° 24 11
1461866400 20.00 19.00 - 20.00 300° 19 9
1461870000 21.00 20.00 - 21.00 330° 9 3
1461873600 22.00 21.00 - 22.00 310° 5 1
1461877200 23.00 22.00 - 23.00 60° 6 2
1461880800 0.00 23.00 - 0.00 30° 5 1
1461884400 1.00 0.00 - 1.00 70° 3 1
1461888000 2.00 1.00 - 2.00 20° 4 1
1461891600 3.00 2.00 - 3.00 50° 2 1
1461895200 4.00 3.00 - 4.00 70° 5 1
1461898800 5.00 4.00 - 5.00 10° 6 2
1461902400 6.00 5.00 - 6.00 80° 8 2
1461906000 7.00 6.00 - 7.00 130° 6 3
1461909600 8.00 7.00 - 8.00 110° 6 3
1461913200 9.00 8.00 - 9.00 110° 9 4
1461916800 10.00 9.00 - 10.00 130° 10 4
1461920400 11.00 10.00 - 11.00 280° 12 2
1461924000 12.00 11.00 - 12.00 190° 13 3

Ihre Wetterstation

Fehlt Ihre Wetterstation auf unserem Portal?

Schreiben Sie an network@meteonews.ch

Klima

Wann ist es am wärmsten? Wann regnet es am wenigsten? Unsere Klimadaten geben Auskunft.